Map

Track Data

SID SEASON NUMBER BASIN SUBBASIN NAME ISO_TIME NATURE LAT LON WMO_WIND WMO_PRES WMO_AGENCY TRACK_TYPE DIST2LAND LANDFALL IFLAG USA_AGENCY USA_ATCF_ID USA_LAT USA_LON USA_RECORD USA_STATUS USA_WIND USA_PRES USA_SSHS USA_R34_NE USA_R34_SE USA_R34_SW USA_R34_NW USA_R50_NE USA_R50_SE USA_R50_SW USA_R50_NW USA_R64_NE USA_R64_SE USA_R64_SW USA_R64_NW USA_POCI USA_ROCI USA_RMW USA_EYE TOKYO_LAT TOKYO_LON TOKYO_GRADE TOKYO_WIND TOKYO_PRES TOKYO_R50_DIR TOKYO_R50_LONG TOKYO_R50_SHORT TOKYO_R30_DIR TOKYO_R30_LONG TOKYO_R30_SHORT TOKYO_LAND CMA_LAT CMA_LON CMA_CAT CMA_WIND CMA_PRES HKO_LAT HKO_LON HKO_CAT HKO_WIND HKO_PRES NEWDELHI_LAT NEWDELHI_LON NEWDELHI_GRADE NEWDELHI_WIND NEWDELHI_PRES NEWDELHI_CI NEWDELHI_DP NEWDELHI_POCI REUNION_LAT REUNION_LON REUNION_TYPE REUNION_WIND REUNION_PRES REUNION_TNUM REUNION_CI REUNION_RMW REUNION_R34_NE REUNION_R34_SE REUNION_R34_SW REUNION_R34_NW REUNION_R50_NE REUNION_R50_SE REUNION_R50_SW REUNION_R50_NW REUNION_R64_NE REUNION_R64_SE REUNION_R64_SW REUNION_R64_NW BOM_LAT BOM_LON BOM_TYPE BOM_WIND BOM_PRES BOM_TNUM BOM_CI BOM_RMW BOM_R34_NE BOM_R34_SE BOM_R34_SW BOM_R34_NW BOM_R50_NE BOM_R50_SE BOM_R50_SW BOM_R50_NW BOM_R64_NE BOM_R64_SE BOM_R64_SW BOM_R64_NW BOM_ROCI BOM_POCI BOM_EYE BOM_POS_METHOD BOM_PRES_METHOD NADI_LAT NADI_LON NADI_CAT NADI_WIND NADI_PRES WELLINGTON_LAT WELLINGTON_LON WELLINGTON_WIND WELLINGTON_PRES DS824_LAT DS824_LON DS824_STAGE DS824_WIND DS824_PRES TD9636_LAT TD9636_LON TD9636_STAGE TD9636_WIND TD9636_PRES TD9635_LAT TD9635_LON TD9635_WIND TD9635_PRES TD9635_ROCI NEUMANN_LAT NEUMANN_LON NEUMANN_CLASS NEUMANN_WIND NEUMANN_PRES MLC_LAT MLC_LON MLC_CLASS MLC_WIND MLC_PRES USA_GUST BOM_GUST BOM_GUST_PER REUNION_GUST REUNION_GUST_PER USA_SEAHGT USA_SEARAD_NE USA_SEARAD_SE USA_SEARAD_SW USA_SEARAD_NW STORM_SPEED STORM_DIR
1991277N13251 1991 75 EP MM LINDA 1991-10-03 12:00:00 TS 13.4000 -108.700 30 1009 hurdat_epa main 771 758 O_____________ hurdat_epa EP141991 13.4000 -108.700 TD 30 1009 -1 6 328
1991277N13251 1991 75 EP MM LINDA 1991-10-03 15:00:00 TS 13.6475 -108.857 main 764 743 P_____________ EP141991 13.6475 -108.857 TD 30 1008 -1 6 330
1991277N13251 1991 75 EP MM LINDA 1991-10-03 18:00:00 TS 13.9000 -109.000 30 1008 hurdat_epa main 743 731 O_____________ hurdat_epa EP141991 13.9000 -109.000 TD 30 1008 -1 6 334
1991277N13251 1991 75 EP MM LINDA 1991-10-03 21:00:00 TS 14.1575 -109.115 main 723 712 P_____________ EP141991 14.1575 -109.115 TD 32 1006 -1 5 339
1991277N13251 1991 75 EP MM LINDA 1991-10-04 00:00:00 TS 14.4000 -109.200 35 1005 hurdat_epa main 712 702 O_____________ hurdat_epa EP141991 14.4000 -109.200 TS 35 1005 0 5 341
1991277N13251 1991 75 EP MM LINDA 1991-10-04 03:00:00 TS 14.6075 -109.272 main 702 686 P_____________ EP141991 14.6075 -109.272 TS 37 1004 0 4 347
1991277N13251 1991 75 EP MM LINDA 1991-10-04 06:00:00 TS 14.8000 -109.300 40 1003 hurdat_epa main 686 670 O_____________ hurdat_epa EP141991 14.8000 -109.300 TS 40 1003 0 4 0
1991277N13251 1991 75 EP MM LINDA 1991-10-04 09:00:00 TS 15.0075 -109.265 main 670 647 P_____________ EP141991 15.0075 -109.265 TS 42 1001 0 4 13
1991277N13251 1991 75 EP MM LINDA 1991-10-04 12:00:00 TS 15.2000 -109.200 45 1000 hurdat_epa main 647 639 O_____________ hurdat_epa EP141991 15.2000 -109.200 TS 45 1000 0 4 17
1991277N13251 1991 75 EP MM LINDA 1991-10-04 15:00:00 TS 15.3575 -109.150 main 623 615 P_____________ EP141991 15.3575 -109.150 TS 50 997 0 3 17
1991277N13251 1991 75 EP MM LINDA 1991-10-04 18:00:00 TS 15.5000 -109.100 55 994 hurdat_epa main 615 608 O_____________ hurdat_epa EP141991 15.5000 -109.100 TS 55 994 0 3 17
1991277N13251 1991 75 EP MM LINDA 1991-10-04 21:00:00 TS 15.6500 -109.057 main 600 584 P_____________ EP141991 15.6500 -109.057 TS 62 989 0 3 17
1991277N13251 1991 75 EP MM LINDA 1991-10-05 00:00:00 TS 15.8000 -109.000 70 985 hurdat_epa main 584 569 O_____________ hurdat_epa EP141991 15.8000 -109.000 HU 70 985 1 3 27
1991277N13251 1991 75 EP MM LINDA 1991-10-05 03:00:00 TS 15.9500 -108.900 main 561 546 P_____________ EP141991 15.9500 -108.900 HU 77 980 1 4 33
1991277N13251 1991 75 EP MM LINDA 1991-10-05 06:00:00 TS 16.1000 -108.800 85 975 hurdat_epa main 546 530 O_____________ hurdat_epa EP141991 16.1000 -108.800 HU 85 975 2 3 27
1991277N13251 1991 75 EP MM LINDA 1991-10-05 09:00:00 TS 16.2500 -108.742 main 530 515 P_____________ EP141991 16.2500 -108.742 HU 92 969 2 3 17
1991277N13251 1991 75 EP MM LINDA 1991-10-05 12:00:00 TS 16.4000 -108.700 100 963 hurdat_epa main 515 507 O_____________ hurdat_epa EP141991 16.4000 -108.700 HU 100 963 3 3 17
1991277N13251 1991 75 EP MM LINDA 1991-10-05 15:00:00 TS 16.5275 -108.650 main 499 483 P_____________ EP141991 16.5275 -108.650 HU 102 960 3 3 17
1991277N13251 1991 75 EP MM LINDA 1991-10-05 18:00:00 TS 16.7000 -108.600 105 957 hurdat_epa main 483 453 O_____________ hurdat_epa EP141991 16.7000 -108.600 HU 105 957 3 5 13
1991277N13251 1991 75 EP MM LINDA 1991-10-05 21:00:00 TS 16.9925 -108.535 main 453 431 P_____________ EP141991 16.9925 -108.535 HU 102 958 3 6 9
1991277N13251 1991 75 EP MM LINDA 1991-10-06 00:00:00 TS 17.3000 -108.500 100 960 hurdat_epa main 431 417 O_____________ hurdat_epa EP141991 17.3000 -108.500 HU 100 960 3 5 0
1991277N13251 1991 75 EP MM LINDA 1991-10-06 03:00:00 TS 17.5075 -108.527 main 417 410 P_____________ EP141991 17.5075 -108.527 HU 97 962 3 4 347
1991277N13251 1991 75 EP MM LINDA 1991-10-06 06:00:00 TS 17.7000 -108.600 95 965 hurdat_epa main 413 401 O_____________ hurdat_epa EP141991 17.7000 -108.600 HU 95 965 2 5 345
1991277N13251 1991 75 EP MM LINDA 1991-10-06 09:00:00 TS 17.9574 -108.655 main 404 397 P_____________ EP141991 17.9574 -108.655 HU 90 969 2 5 339
1991277N13251 1991 75 EP MM LINDA 1991-10-06 12:00:00 TS 18.2000 -108.800 85 974 hurdat_epa main 400 400 O_____________ hurdat_epa EP141991 18.2000 -108.800 HU 85 974 2 6 312
1991277N13251 1991 75 EP MM LINDA 1991-10-06 15:00:00 TS 18.3576 -109.120 main 418 418 P_____________ EP141991 18.3576 -109.120 HU 80 976 1 7 294
1991277N13251 1991 75 EP MM LINDA 1991-10-06 18:00:00 TS 18.5000 -109.500 75 979 hurdat_epa main 451 451 O_____________ hurdat_epa EP141991 18.5000 -109.500 HU 75 979 1 7 298
1991277N13251 1991 75 EP MM LINDA 1991-10-06 21:00:00 TS 18.6998 -109.793 main 469 447 P_____________ EP141991 18.6998 -109.793 HU 72 981 1 7 305
1991277N13251 1991 75 EP MM LINDA 1991-10-07 00:00:00 TS 18.9000 -110.100 70 984 hurdat_epa main 447 426 O_____________ hurdat_epa EP141991 18.9000 -110.100 HU 70 984 1 7 300
1991277N13251 1991 75 EP MM LINDA 1991-10-07 03:00:00 TS 19.0724 -110.470 main 428 420 P_____________ EP141991 19.0724 -110.470 HU 67 985 1 8 292
1991277N13251 1991 75 EP MM LINDA 1991-10-07 06:00:00 TS 19.2000 -110.900 65 987 hurdat_epa main 424 421 O_____________ hurdat_epa EP141991 19.2000 -110.900 HU 65 987 1 9 283
1991277N13251 1991 75 EP MM LINDA 1991-10-07 09:00:00 TS 19.2725 -111.385 main 427 427 P_____________ EP141991 19.2725 -111.385 HU 62 988 0 10 276
1991277N13251 1991 75 EP MM LINDA 1991-10-07 12:00:00 TS 19.3000 -111.900 60 990 hurdat_epa main 448 448 O_____________ hurdat_epa EP141991 19.3000 -111.900 TS 60 990 0 10 272
1991277N13251 1991 75 EP MM LINDA 1991-10-07 15:00:00 TS 19.2999 -112.400 main 473 473 P_____________ EP141991 19.2999 -112.400 TS 57 992 0 9 270
1991277N13251 1991 75 EP MM LINDA 1991-10-07 18:00:00 TS 19.3000 -112.900 55 994 hurdat_epa main 502 502 O_____________ hurdat_epa EP141991 19.3000 -112.900 TS 55 994 0 9 273
1991277N13251 1991 75 EP MM LINDA 1991-10-07 21:00:00 TS 19.3423 -113.392 main 535 533 P_____________ EP141991 19.3423 -113.392 TS 52 994 0 9 276
1991277N13251 1991 75 EP MM LINDA 1991-10-08 00:00:00 TS 19.4000 -113.900 50 995 hurdat_epa main 562 562 O_____________ hurdat_epa EP141991 19.4000 -113.900 TS 50 995 0 10 276
1991277N13251 1991 75 EP MM LINDA 1991-10-08 03:00:00 TS 19.4426 -114.465 main 608 608 P_____________ EP141991 19.4426 -114.465 TS 50 996 0 10 276
1991277N13251 1991 75 EP MM LINDA 1991-10-08 06:00:00 TS 19.5000 -115.000 50 998 hurdat_epa main 642 642 O_____________ hurdat_epa EP141991 19.5000 -115.000 TS 50 998 0 9 279
1991277N13251 1991 75 EP MM LINDA 1991-10-08 09:00:00 TS 19.5922 -115.415 main 661 661 P_____________ EP141991 19.5922 -115.415 TS 47 999 0 8 285
1991277N13251 1991 75 EP MM LINDA 1991-10-08 12:00:00 TS 19.7000 -115.800 45 1000 hurdat_epa main 676 676 O_____________ hurdat_epa EP141991 19.7000 -115.800 TS 45 1000 0 8 285
1991277N13251 1991 75 EP MM LINDA 1991-10-08 15:00:00 TS 19.8074 -116.242 main 691 691 P_____________ EP141991 19.8074 -116.242 TS 45 1000 0 9 283
1991277N13251 1991 75 EP MM LINDA 1991-10-08 18:00:00 TS 19.9000 -116.700 45 1001 hurdat_epa main 715 715 O_____________ hurdat_epa EP141991 19.9000 -116.700 TS 45 1001 0 9 280
1991277N13251 1991 75 EP MM LINDA 1991-10-08 21:00:00 TS 19.9649 -117.150 main 742 742 P_____________ EP141991 19.9649 -117.150 TS 42 1001 0 9 277
1991277N13251 1991 75 EP MM LINDA 1991-10-09 00:00:00 TS 20.0000 -117.600 40 1002 hurdat_epa main 771 771 O_____________ hurdat_epa EP141991 20.0000 -117.600 TS 40 1002 0 9 272
1991277N13251 1991 75 EP MM LINDA 1991-10-09 03:00:00 TS 19.9999 -118.058 main 809 809 P_____________ EP141991 19.9999 -118.058 TS 40 1003 0 8 270
1991277N13251 1991 75 EP MM LINDA 1991-10-09 06:00:00 TS 20.0000 -118.500 40 1004 hurdat_epa main 840 840 O_____________ hurdat_epa EP141991 20.0000 -118.500 TS 40 1004 0 8 273
1991277N13251 1991 75 EP MM LINDA 1991-10-09 09:00:00 TS 20.0500 -118.930 main 872 872 P_____________ EP141991 20.0500 -118.930 TS 37 1004 0 8 278
1991277N13251 1991 75 EP MM LINDA 1991-10-09 12:00:00 TS 20.1000 -119.300 35 1005 hurdat_epa main 898 898 O_____________ hurdat_epa EP141991 20.1000 -119.300 TS 35 1005 0 6 275
1991277N13251 1991 75 EP MM LINDA 1991-10-09 15:00:00 TS 20.1073 -119.565 main 923 923 P_____________ EP141991 20.1073 -119.565 TS 35 1005 0 5 270
1991277N13251 1991 75 EP MM LINDA 1991-10-09 18:00:00 TS 20.1000 -119.800 35 1005 hurdat_epa main 940 940 O_____________ hurdat_epa EP141991 20.1000 -119.800 TS 35 1005 0 5 269
1991277N13251 1991 75 EP MM LINDA 1991-10-09 21:00:00 TS 20.1000 -120.093 main 966 966 P_____________ EP141991 20.1000 -120.093 TS 32 1005 -1 6 270
1991277N13251 1991 75 EP MM LINDA 1991-10-10 00:00:00 TS 20.1000 -120.400 30 1006 hurdat_epa main 992 992 O_____________ hurdat_epa EP141991 20.1000 -120.400 TD 30 1006 -1 6 270
1991277N13251 1991 75 EP MM LINDA 1991-10-10 03:00:00 TS 20.1000 -120.700 main 1018 1018 P_____________ EP141991 20.1000 -120.700 TD 30 1006 -1 6 270
1991277N13251 1991 75 EP MM LINDA 1991-10-10 06:00:00 TS 20.1000 -121.000 30 1007 hurdat_epa main 1039 1039 O_____________ hurdat_epa EP141991 20.1000 -121.000 TD 30 1007 -1 6 271
1991277N13251 1991 75 EP MM LINDA 1991-10-10 09:00:00 TS 20.1075 -121.300 main 1059 1059 P_____________ EP141991 20.1075 -121.300 TD 30 1007 -1 6 270
1991277N13251 1991 75 EP MM LINDA 1991-10-10 12:00:00 TS 20.1000 -121.600 30 1008 hurdat_epa main 1079 1079 O_____________ hurdat_epa EP141991 20.1000 -121.600 TD 30 1008 -1 6 264
1991277N13251 1991 75 EP MM LINDA 1991-10-10 15:00:00 TS 20.0499 -121.893 main 1108 1108 P_____________ EP141991 20.0499 -121.893 TD 27 1008 -1 6 260
1991277N13251 1991 75 EP MM LINDA 1991-10-10 18:00:00 TS 20.0000 -122.200 25 1008 hurdat_epa main 1129 1129 O_____________ hurdat_epa EP141991 20.0000 -122.200 TD 25 1008 -1 6 265
1991277N13251 1991 75 EP MM LINDA 1991-10-10 21:00:00 TS 19.9999 -122.535 main 1148 1148 P_____________ EP141991 19.9999 -122.535 TD 25 1008 -1 7 270
1991277N13251 1991 75 EP MM LINDA 1991-10-11 00:00:00 TS 20.0000 -122.900 25 1009 hurdat_epa main 1176 1176 O_____________ hurdat_epa EP141991 20.0000 -122.900 TD 25 1009 -1 7 267
1991277N13251 1991 75 EP MM LINDA 1991-10-11 03:00:00 TS 19.9650 -123.300 main 1204 1204 P_____________ EP141991 19.9650 -123.300 TD 25 1009 -1 8 262
1991277N13251 1991 75 EP MM LINDA 1991-10-11 06:00:00 TS 19.9000 -123.700 25 1009 hurdat_epa main 1241 1241 O_____________ hurdat_epa EP141991 19.9000 -123.700 TD 25 1009 -1 7 258
1991277N13251 1991 75 EP MM LINDA 1991-10-11 09:00:00 TS 19.8074 -124.058 main 1278 1278 P_____________ EP141991 19.8074 -124.058 TD 25 1009 -1 7 253
1991277N13251 1991 75 EP MM LINDA 1991-10-11 12:00:00 TS 19.7000 -124.400 25 1010 hurdat_epa main 1308 1308 O_____________ hurdat_epa EP141991 19.7000 -124.400 TD 25 1010 -1 7 252
1991277N13251 1991 75 EP MM LINDA 1991-10-11 15:00:00 TS 19.5999 -124.742 main 1338 1338 P_____________ EP141991 19.5999 -124.742 TD 25 1010 -1 7 253
1991277N13251 1991 75 EP MM LINDA 1991-10-11 18:00:00 TS 19.5000 -125.100 25 1010 hurdat_epa main 1376 1376 O_____________ hurdat_epa EP141991 19.5000 -125.100 TD 25 1010 -1 7 255
1991277N13251 1991 75 EP MM LINDA 1991-10-11 21:00:00 TS 19.4075 -125.500 main 1414 1414 P_____________ EP141991 19.4075 -125.500 TD 25 1010 -1 8 255
1991277N13251 1991 75 EP MM LINDA 1991-10-12 00:00:00 TS 19.3000 -125.900 25 1010 hurdat_epa main 1453 1453 O_____________ hurdat_epa EP141991 19.3000 -125.900 TD 25 1010 -1 8 252
1991277N13251 1991 75 EP MM LINDA 1991-10-12 03:00:00 TS 19.1724 -126.257 main 1491 1491 P_____________ EP141991 19.1724 -126.257 TD 25 1010 -1 7 246
1991277N13251 1991 75 EP MM LINDA 1991-10-12 06:00:00 TS 19.0000 -126.600 25 1010 hurdat_epa main 1530 1530 O_____________ hurdat_epa EP141991 19.0000 -126.600 TD 25 1010 -1 8 238
1991277N13251 1991 75 EP MM LINDA 1991-10-12 09:00:00 TS 18.7575 -126.958 main 1576 1576 P_____________ EP141991 18.7575 -126.958 TD 25 1010 -1 8 233
1991277N13251 1991 75 EP MM LINDA 1991-10-12 12:00:00 TS 18.5000 -127.300 25 1010 hurdat_epa main 1622 1622 O_____________ hurdat_epa EP141991 18.5000 -127.300 TD 25 1010 -1 8 232
1991277N13251 1991 75 EP MM LINDA 1991-10-12 15:00:00 TS 18.2775 -127.615 main 1661 1661 P_____________ EP141991 18.2775 -127.615 TD 25 1010 -1 7 235
1991277N13251 1991 75 EP MM LINDA 1991-10-12 18:00:00 TS 18.1000 -127.900 25 1010 hurdat_epa main 1699 1699 O_____________ hurdat_epa EP141991 18.1000 -127.900 TD 25 1010 -1 6 239
1991277N13251 1991 75 EP MM LINDA 1991-10-12 21:00:00 TS 17.9699 -128.150 main 1722 1722 P_____________ EP141991 17.9699 -128.150 TD 25 1010 -1 5 247
1991277N13251 1991 75 EP MM LINDA 1991-10-13 00:00:00 TS 17.9000 -128.400 25 1010 hurdat_epa main 1754 1754 O_____________ hurdat_epa EP141991 17.9000 -128.400 TD 25 1010 -1 5 259
1991277N13251 1991 75 EP MM LINDA 1991-10-13 03:00:00 TS 17.8625 -128.708 main 1778 1778 P_____________ EP141991 17.8625 -128.708 TD 25 1010 -1 6 270
1991277N13251 1991 75 EP MM LINDA 1991-10-13 06:00:00 TS 17.9000 -129.000 25 1010 hurdat_epa main 1802 1802 O_____________ hurdat_epa EP141991 17.9000 -129.000 TD 25 1010 -1 5 289
1991277N13251 1991 75 EP MM LINDA 1991-10-13 09:00:00 TS 18.0274 -129.200 main 1811 1804 P_____________ EP141991 18.0274 -129.200 TD 22 1010 -1 5 308
1991277N13251 1991 75 EP MM LINDA 1991-10-13 12:00:00 TS 18.2000 -129.400 20 1011 hurdat_epa main 1813 1813 O_____________ hurdat_epa EP141991 18.2000 -129.400 TD 20 1011 -1 6 306
1991277N13251 1991 75 EP MM LINDA 1991-10-13 15:00:00 TS 18.3577 -129.675 main 1825 1825 P_____________ EP141991 18.3577 -129.675 TD 20 1011 -1 6 298
1991277N13251 1991 75 EP MM LINDA 1991-10-13 18:00:00 TS 18.5000 -130.000 20 1011 hurdat_epa main 1843 O_____________ hurdat_epa EP141991 18.5000 -130.000 TD 20 1011 -1 7 295

About IBTrACS Database

This database is a web-friendly format of International Best Track Archive for Climate Stewardship (IBTrACS), a global best track data archive curated by NOAA dating back to 1842.

Updated: 2021-10-27